Time;durP1;ratioP1;P1;durP2;ratioP2;P2;SDS_P1;SDS_P2;PMS_P1;PMS_P2;Temp;Humidity;BMP_temperature;BMP_pressure;BME280_temperature;BME280_humidity;BME280_pressure;Samples;Min_cycle;Max_cycle;Signal;HPM_P1;HPM_P2
2023/06/05 00:01:02;;;;;;;3.25;1.73;;;;;;;19.04;24.06;101646.94;5032922;28;20052;-80
2023/06/05 00:07:47;;;;;;;3.42;1.63;;;;;;;18.93;24.17;101648.09;5047504;28;20041;-82
2023/06/05 00:10:15;;;;;;;2.25;1.33;;;;;;;18.94;24.28;101644.31;5050978;28;20044;-82
2023/06/05 00:12:44;;;;;;;4.30;1.65;;;;;;;18.93;24.36;101652.78;5034568;28;20455;-82
2023/06/05 00:15:12;;;;;;;2.42;1.38;;;;;;;18.89;24.55;101646.69;5032610;28;20112;-81
2023/06/05 00:17:40;;;;;;;3.42;1.70;;;;;;;18.88;24.60;101643.06;5034945;28;20045;-83
2023/06/05 00:20:10;;;;;;;3.70;1.95;;;;;;;18.87;24.90;101649.66;5033059;28;20595;-82
2023/06/05 00:22:38;;;;;;;5.13;1.90;;;;;;;18.84;25.30;101650.00;5034600;28;20049;-81
2023/06/05 00:25:08;;;;;;;3.72;1.73;;;;;;;18.83;25.14;101655.69;5033020;28;20045;-82
2023/06/05 00:27:36;;;;;;;5.88;1.90;;;;;;;18.78;25.25;101650.69;5052667;28;20116;-81
2023/06/05 00:30:05;;;;;;;2.75;1.63;;;;;;;18.80;25.28;101653.28;5033536;28;20041;-83
2023/06/05 00:32:33;;;;;;;3.78;1.70;;;;;;;18.78;25.29;101649.81;5034852;28;20056;-82
2023/06/05 00:35:01;;;;;;;4.32;1.77;;;;;;;18.74;25.96;101649.25;5037017;28;20041;-82
2023/06/05 00:37:31;;;;;;;5.10;2.03;;;;;;;18.75;25.64;101647.38;5038414;28;20063;-81
2023/06/05 00:39:59;;;;;;;3.90;1.70;;;;;;;18.70;25.73;101645.13;5036937;28;20057;-82
2023/06/05 00:42:27;;;;;;;3.75;1.60;;;;;;;18.69;26.04;101648.03;5038109;28;20079;-83
2023/06/05 00:45:06;;;;;;;5.10;2.20;;;;;;;18.66;26.14;101645.59;5036599;28;20135;-82
2023/06/05 00:47:35;;;;;;;3.03;1.77;;;;;;;18.64;26.28;101639.34;5054729;28;20443;-83
2023/06/05 00:50:03;;;;;;;3.55;1.88;;;;;;;18.61;26.42;101650.78;5037205;28;20454;-81
2023/06/05 00:52:33;;;;;;;4.43;1.98;;;;;;;18.62;26.27;101656.19;5041451;28;20040;-80
2023/06/05 00:55:02;;;;;;;3.40;1.92;;;;;;;18.57;26.42;101647.47;5038715;28;20377;-81
2023/06/05 00:57:33;;;;;;;3.22;1.83;;;;;;;18.54;26.68;101647.81;5041837;28;20048;-80
2023/06/05 01:00:06;;;;;;;3.13;1.73;;;;;;;18.50;26.62;101636.19;5049085;28;20037;-80
2023/06/05 01:02:37;;;;;;;3.25;2.03;;;;;;;18.49;27.13;101644.66;5044554;28;20041;-81
2023/06/05 01:05:05;;;;;;;3.65;1.85;;;;;;;18.46;27.17;101647.75;5036488;28;20064;-79
2023/06/05 01:07:37;;;;;;;3.97;2.00;;;;;;;18.47;27.43;101644.78;5060670;28;20024;-79
2023/06/05 01:10:09;;;;;;;3.30;1.67;;;;;;;18.44;27.00;101638.75;5048934;28;20374;-79
2023/06/05 01:12:43;;;;;;;3.30;1.77;;;;;;;18.43;27.35;101648.09;5047117;28;20041;-79
2023/06/05 01:15:11;;;;;;;4.00;1.65;;;;;;;18.40;27.14;101640.09;5033881;28;20118;-80
2023/06/05 01:17:42;;;;;;;3.75;1.88;;;;;;;18.39;27.32;101639.22;5035717;28;20052;-80
2023/06/05 01:20:11;;;;;;;5.13;1.85;;;;;;;18.37;27.51;101637.69;5035396;28;20044;-80
2023/06/05 01:22:41;;;;;;;3.17;1.70;;;;;;;18.36;27.73;101638.72;5033510;28;20124;-79
2023/06/05 01:25:11;;;;;;;3.65;1.75;;;;;;;18.35;27.89;101648.06;5033073;28;20037;-79
2023/06/05 01:27:45;;;;;;;3.20;1.80;;;;;;;18.34;27.94;101640.75;5037883;28;20053;-80
2023/06/05 01:30:19;;;;;;;3.42;1.70;;;;;;;18.31;28.11;101635.53;5050266;28;20381;-80
2023/06/05 01:32:54;;;;;;;4.35;1.80;;;;;;;18.29;28.20;101643.19;5035697;28;20045;-79
2023/06/05 01:35:27;;;;;;;2.78;1.63;;;;;;;18.26;27.79;101643.50;5026962;28;20112;-80
2023/06/05 01:37:58;;;;;;;4.07;1.80;;;;;;;18.26;28.04;101637.97;5031211;28;20585;-80
2023/06/05 01:40:31;;;;;;;2.88;1.75;;;;;;;18.22;28.75;101636.56;5031007;28;20085;-80
2023/06/05 01:43:02;;;;;;;2.92;1.63;;;;;;;18.20;28.15;101639.50;5041541;28;20102;-81
2023/06/05 01:45:31;;;;;;;4.00;2.00;;;;;;;18.19;27.93;101634.13;5039456;28;20049;-81
2023/06/05 01:47:59;;;;;;;3.38;2.00;;;;;;;18.15;28.03;101633.56;5042578;28;20127;-81
2023/06/05 01:50:35;;;;;;;3.55;1.70;;;;;;;18.15;28.89;101625.25;5030416;28;20076;-81
2023/06/05 01:53:03;;;;;;;4.35;1.92;;;;;;;18.10;28.25;101630.44;5035193;28;20056;-82
2023/06/05 01:55:38;;;;;;;3.72;1.70;;;;;;;18.10;28.49;101625.78;5031485;28;20048;-81
2023/06/05 01:58:07;;;;;;;3.25;1.60;;;;;;;18.04;28.33;101628.34;5033041;28;20090;-82
2023/06/05 02:00:36;;;;;;;3.38;1.92;;;;;;;18.04;28.26;101631.97;5030296;28;20098;-82
2023/06/05 02:03:04;;;;;;;3.13;1.70;;;;;;;18.01;28.74;101618.44;5030583;28;20106;-83
2023/06/05 02:05:33;;;;;;;4.53;1.92;;;;;;;17.99;28.88;101616.88;5032396;28;20053;-82
2023/06/05 02:08:04;;;;;;;3.15;1.77;;;;;;;17.98;28.99;101618.75;5033011;28;20065;-82
2023/06/05 02:10:34;;;;;;;4.00;1.90;;;;;;;17.98;28.58;101623.44;5031253;28;20049;-82
2023/06/05 02:13:03;;;;;;;3.38;1.70;;;;;;;17.94;29.01;101625.69;5048814;28;20047;-81
2023/06/05 02:15:33;;;;;;;3.47;1.90;;;;;;;17.92;28.98;101630.50;5031614;28;20080;-82
2023/06/05 02:18:02;;;;;;;4.40;1.80;;;;;;;17.90;29.08;101629.78;5027335;28;20037;-81
2023/06/05 02:20:32;;;;;;;3.92;1.90;;;;;;;17.88;28.94;101620.81;5028654;28;20045;-81
2023/06/05 02:23:00;;;;;;;3.83;2.00;;;;;;;17.86;29.30;101627.53;5032202;28;20068;-81
2023/06/05 02:25:29;;;;;;;3.90;2.03;;;;;;;17.83;29.34;101625.94;5030184;28;20052;-82
2023/06/05 02:27:59;;;;;;;5.40;2.38;;;;;;;17.85;28.96;101631.31;5033906;28;20049;-82
2023/06/05 02:30:27;;;;;;;4.45;2.25;;;;;;;17.81;29.11;101627.16;5031094;28;20151;-82
2023/06/05 02:32:56;;;;;;;3.88;2.08;;;;;;;17.76;29.20;101619.31;5031207;28;20140;-82
2023/06/05 02:35:25;;;;;;;3.00;1.67;;;;;;;17.75;29.45;101609.28;5029837;28;20056;-81
2023/06/05 02:37:53;;;;;;;4.35;2.20;;;;;;;17.71;29.86;101610.63;5030600;28;20041;-82
2023/06/05 02:40:21;;;;;;;5.53;2.33;;;;;;;17.69;29.48;101612.69;5028239;28;20056;-82
2023/06/05 02:42:50;;;;;;;4.57;2.22;;;;;;;17.66;29.62;101615.75;5030003;28;20045;-82
2023/06/05 02:45:19;;;;;;;4.13;2.30;;;;;;;17.65;29.49;101611.25;5031053;28;20052;-82
2023/06/05 02:47:49;;;;;;;5.32;2.00;;;;;;;17.60;29.45;101605.34;5032458;28;20063;-82
2023/06/05 02:50:17;;;;;;;3.22;1.83;;;;;;;17.56;29.98;101599.28;5031101;28;20063;-83
2023/06/05 02:52:50;;;;;;;4.53;2.00;;;;;;;17.56;29.76;101609.47;5047716;28;20469;-81
2023/06/05 02:55:29;;;;;;;4.28;2.00;;;;;;;17.52;29.88;101608.06;5039154;28;20119;-81
2023/06/05 02:58:00;;;;;;;3.45;1.92;;;;;;;17.50;30.08;101601.81;5044471;28;20089;-82
2023/06/05 03:00:38;;;;;;;4.38;2.10;;;;;;;17.48;29.95;101606.66;5031447;28;20037;-81
2023/06/05 03:03:07;;;;;;;4.32;2.20;;;;;;;17.43;30.16;101603.47;5033958;28;20041;-82
2023/06/05 03:05:36;;;;;;;4.30;2.00;;;;;;;17.40;30.01;101605.53;5031004;28;20041;-82
2023/06/05 03:08:11;;;;;;;3.92;2.00;;;;;;;17.36;29.89;101595.84;5028404;28;20041;-81
2023/06/05 03:10:39;;;;;;;3.15;1.80;;;;;;;17.35;30.32;101607.06;5029662;28;20114;-81
2023/06/05 03:13:08;;;;;;;4.40;2.22;;;;;;;17.31;30.16;101603.75;5032797;28;20037;-81
2023/06/05 03:15:39;;;;;;;3.65;1.95;;;;;;;17.31;30.07;101601.00;5027610;28;20527;-81
2023/06/05 03:18:11;;;;;;;4.38;2.08;;;;;;;17.27;30.64;101599.56;5046186;28;20091;-81
2023/06/05 03:20:39;;;;;;;4.45;2.10;;;;;;;17.24;30.58;101602.63;5028940;28;20678;-81
2023/06/05 03:23:09;;;;;;;3.47;2.10;;;;;;;17.21;30.58;101597.44;5031339;28;20086;-80
2023/06/05 03:25:37;;;;;;;4.20;1.77;;;;;;;17.17;30.81;101595.13;5030398;28;20530;-82
2023/06/05 03:28:06;;;;;;;4.72;2.08;;;;;;;17.16;30.45;101604.47;5030760;28;20037;-82
2023/06/05 03:30:36;;;;;;;3.35;1.92;;;;;;;17.13;30.28;101602.91;5028196;28;20048;-81
2023/06/05 03:33:06;;;;;;;3.67;2.00;;;;;;;17.12;30.51;101598.41;5032481;28;20045;-80
2023/06/05 03:35:34;;;;;;;3.65;2.00;;;;;;;17.09;30.45;101608.91;5032961;28;20103;-82
2023/06/05 03:38:05;;;;;;;3.45;2.10;;;;;;;17.04;30.92;101595.56;5035558;28;20072;-81
2023/06/05 03:40:34;;;;;;;4.20;2.38;;;;;;;17.02;30.66;101592.94;5046710;28;20049;-83
2023/06/05 03:43:02;;;;;;;4.00;2.20;;;;;;;16.98;30.75;101593.44;5035002;28;20036;-83
2023/06/05 03:45:33;;;;;;;4.60;2.00;;;;;;;16.96;30.50;101593.56;5033280;28;20048;-82
2023/06/05 03:48:03;;;;;;;4.47;2.00;;;;;;;16.97;31.21;101606.41;5032697;28;20113;-81
2023/06/05 03:50:38;;;;;;;3.87;1.90;;;;;;;16.95;30.65;101607.53;5031525;28;20053;-81
2023/06/05 03:53:07;;;;;;;4.28;1.98;;;;;;;16.90;30.70;101602.50;5028242;28;20072;-82
2023/06/05 03:55:41;;;;;;;4.25;2.10;;;;;;;16.91;30.94;101606.97;5045116;28;20049;-82
2023/06/05 03:58:15;;;;;;;4.53;2.28;;;;;;;16.90;31.06;101601.63;5032053;28;20033;-82
2023/06/05 04:00:48;;;;;;;;;;;;;;;16.59;31.51;101607.50;5028341;28;20079;-81
2023/06/05 04:03:18;;;;;;;3.50;2.17;;;;;;;16.81;31.29;101600.66;5029648;28;19921;-79
2023/06/05 04:05:47;;;;;;;4.32;2.38;;;;;;;16.83;31.15;101609.66;5029712;28;20515;-81
2023/06/05 04:08:16;;;;;;;3.95;2.40;;;;;;;16.80;31.26;101609.13;5032145;28;20094;-80
2023/06/05 04:10:44;;;;;;;5.45;2.40;;;;;;;16.79;31.53;101608.25;5032161;28;20044;-81
2023/06/05 04:13:12;;;;;;;5.25;2.80;;;;;;;16.77;31.39;101610.28;5034240;28;20135;-82
2023/06/05 04:15:41;;;;;;;4.13;2.40;;;;;;;16.73;31.26;101614.41;5032252;28;20072;-78
2023/06/05 04:18:10;;;;;;;4.50;2.38;;;;;;;16.71;31.72;101608.16;5030852;28;20076;-83
2023/06/05 04:20:38;;;;;;;3.90;2.08;;;;;;;16.70;31.64;101609.19;5030206;28;20065;-80
2023/06/05 04:23:08;;;;;;;3.85;2.25;;;;;;;16.71;31.45;101605.41;5035941;28;20037;-82
2023/06/05 04:25:45;;;;;;;;;;;;;;;16.40;32.11;101606.78;5030262;28;20524;-81
2023/06/05 04:28:15;;;;;;;4.75;2.20;;;;;;;16.59;31.72;101610.25;5030576;28;19963;-80
2023/06/05 04:30:45;;;;;;;4.45;2.42;;;;;;;16.62;31.41;101606.31;5032013;28;20041;-81
2023/06/05 04:33:17;;;;;;;4.97;2.22;;;;;;;16.61;31.98;101604.59;5036554;28;20041;-81
2023/06/05 04:35:46;;;;;;;3.97;2.30;;;;;;;16.59;31.54;101601.09;5029434;28;20063;-83
2023/06/05 04:38:20;;;;;;;4.47;2.60;;;;;;;16.60;32.31;101616.66;5050749;28;20033;-80
2023/06/05 04:40:50;;;;;;;4.05;2.25;;;;;;;16.58;31.74;101610.41;5047881;28;20028;-80
2023/06/05 04:43:18;;;;;;;4.80;2.35;;;;;;;16.56;32.00;101607.81;5066799;28;20059;-79
2023/06/05 04:45:47;;;;;;;4.32;2.60;;;;;;;16.56;32.24;101618.88;5064640;28;20045;-83
2023/06/05 04:48:16;;;;;;;5.55;2.70;;;;;;;16.56;32.31;101621.66;5053346;28;20049;-81
2023/06/05 04:50:45;;;;;;;4.60;2.63;;;;;;;16.56;32.01;101618.00;5034540;28;20072;-82
2023/06/05 04:53:13;;;;;;;4.30;2.67;;;;;;;16.55;31.90;101619.91;5037942;28;20467;-83
2023/06/05 04:55:45;;;;;;;4.53;2.40;;;;;;;16.59;32.24;101621.31;5036362;28;20114;-81
2023/06/05 04:58:16;;;;;;;4.53;2.70;;;;;;;16.54;32.11;101620.06;5036759;28;20037;-81
2023/06/05 05:00:45;;;;;;;5.35;3.25;;;;;;;16.56;32.75;101612.47;5034576;28;20045;-82
2023/06/05 05:03:13;;;;;;;5.65;2.88;;;;;;;16.58;32.51;101619.56;5038670;28;20578;-83
2023/06/05 05:05:41;;;;;;;4.80;3.15;;;;;;;16.62;32.48;101617.38;5037179;28;20056;-83
2023/06/05 05:08:09;;;;;;;5.13;3.10;;;;;;;16.68;32.49;101615.88;5037115;28;20426;-82
2023/06/05 05:10:38;;;;;;;5.25;2.70;;;;;;;16.78;32.58;101616.69;5032052;28;20045;-83
2023/06/05 05:13:08;;;;;;;5.85;3.03;;;;;;;16.92;32.96;101619.78;5048604;28;20056;-84
2023/06/05 05:15:36;;;;;;;5.10;2.78;;;;;;;17.06;32.66;101625.81;5036013;28;20052;-84
2023/06/05 05:18:05;;;;;;;6.05;2.75;;;;;;;17.21;32.60;101618.72;5034917;28;20029;-83
2023/06/05 05:20:35;;;;;;;5.38;2.78;;;;;;;17.39;32.31;101625.09;5034888;28;20132;-83
2023/06/05 05:23:07;;;;;;;5.45;2.78;;;;;;;17.55;32.13;101619.69;5036334;28;20507;-84
2023/06/05 05:25:38;;;;;;;5.78;2.78;;;;;;;17.77;32.49;101621.06;5037956;28;20055;-84
2023/06/05 05:28:06;;;;;;;5.10;2.92;;;;;;;17.92;31.98;101619.44;5058450;28;20082;-85
2023/06/05 05:30:35;;;;;;;5.07;2.95;;;;;;;18.14;31.72;101620.78;5037943;28;20049;-83
2023/06/05 05:33:05;;;;;;;4.15;2.63;;;;;;;18.30;31.68;101628.28;5032221;28;20060;-83
2023/06/05 05:35:33;;;;;;;4.72;2.95;;;;;;;18.47;31.62;101627.31;5034365;28;20041;-84
2023/06/05 05:38:01;;;;;;;4.28;2.55;;;;;;;18.62;30.95;101625.69;5043558;28;20037;-83
2023/06/05 05:40:29;;;;;;;5.00;2.70;;;;;;;18.80;30.98;101622.78;5036497;28;20136;-83
2023/06/05 05:42:57;;;;;;;5.80;2.65;;;;;;;18.94;30.73;101633.22;5034920;28;20044;-84
2023/06/05 05:45:25;;;;;;;5.80;2.90;;;;;;;19.10;30.64;101629.59;5031812;28;20049;-84
2023/06/05 05:47:54;;;;;;;4.10;2.55;;;;;;;19.23;30.09;101625.28;5052989;28;20090;-83
2023/06/05 05:50:22;;;;;;;5.93;2.88;;;;;;;19.31;30.48;101621.63;5030519;28;20523;-85
2023/06/05 05:52:52;;;;;;;3.40;2.30;;;;;;;19.41;29.95;101630.66;5048800;28;20053;-83
2023/06/05 05:55:21;;;;;;;5.38;2.58;;;;;;;19.50;30.20;101632.41;5031996;28;20076;-84
2023/06/05 05:57:49;;;;;;;4.75;2.40;;;;;;;19.57;30.37;101639.00;5035649;28;20045;-83
2023/06/05 06:00:18;;;;;;;6.25;2.30;;;;;;;19.65;29.84;101630.66;5031963;28;20061;-83
2023/06/05 06:02:47;;;;;;;4.20;2.47;;;;;;;19.69;29.51;101636.72;5032548;28;20095;-84
2023/06/05 06:05:18;;;;;;;4.22;2.40;;;;;;;19.78;30.05;101634.81;5045538;28;20048;-85
2023/06/05 06:07:46;;;;;;;3.90;2.20;;;;;;;19.81;29.75;101637.22;5033926;28;20083;-82
2023/06/05 06:10:15;;;;;;;4.88;2.22;;;;;;;19.85;29.90;101627.50;5031328;28;20063;-83
2023/06/05 06:12:44;;;;;;;5.10;2.30;;;;;;;19.88;29.59;101622.44;5033532;28;20048;-83
2023/06/05 06:15:12;;;;;;;5.50;2.50;;;;;;;19.96;29.73;101629.91;5031088;28;20065;-82
2023/06/05 06:17:40;;;;;;;4.10;2.10;;;;;;;20.02;29.80;101626.47;5032124;28;20059;-83
2023/06/05 06:20:12;;;;;;;5.05;2.50;;;;;;;20.05;29.51;101620.53;5030136;28;20435;-82
2023/06/05 06:22:43;;;;;;;5.22;2.53;;;;;;;20.13;29.27;101620.50;5036990;28;20045;-81
2023/06/05 06:25:14;;;;;;;3.97;2.40;;;;;;;20.18;29.80;101622.75;5044441;28;20049;-81
2023/06/05 06:27:43;;;;;;;4.70;2.45;;;;;;;20.20;29.65;101620.66;5043751;28;20060;-82
2023/06/05 06:30:12;;;;;;;6.60;2.50;;;;;;;20.28;29.24;101621.47;5041794;28;20041;-83
2023/06/05 06:32:40;;;;;;;4.30;2.53;;;;;;;20.34;29.48;101629.13;5037111;28;20086;-84
2023/06/05 06:35:09;;;;;;;3.85;2.50;;;;;;;20.41;29.33;101634.81;5023370;28;20055;-83
2023/06/05 06:37:37;;;;;;;3.50;2.03;;;;;;;20.46;29.29;101628.69;5049110;28;20087;-82
2023/06/05 06:40:10;;;;;;;4.25;2.40;;;;;;;20.52;29.24;101637.22;5031368;28;20041;-82
2023/06/05 06:42:39;;;;;;;4.85;1.95;;;;;;;20.56;29.04;101630.22;5032278;28;20037;-84
2023/06/05 06:45:17;;;;;;;3.53;2.10;;;;;;;20.64;29.15;101633.00;5026909;28;20049;-83
2023/06/05 06:47:45;;;;;;;3.60;1.90;;;;;;;20.70;29.46;101632.25;5033059;28;20040;-83
2023/06/05 06:50:26;;;;;;;4.03;2.25;;;;;;;20.75;29.17;101629.81;5029640;28;20103;-82
2023/06/05 06:52:54;;;;;;;5.32;2.50;;;;;;;20.83;28.59;101628.91;5030006;28;20044;-83
2023/06/05 06:55:23;;;;;;;3.83;2.03;;;;;;;20.92;28.55;101638.94;5032463;28;20053;-81
2023/06/05 06:57:51;;;;;;;7.40;1.90;;;;;;;20.98;28.77;101640.97;5031069;28;20703;-83
2023/06/05 07:00:20;;;;;;;4.85;2.00;;;;;;;21.05;28.64;101649.44;5032032;28;20075;-83
2023/06/05 07:02:48;;;;;;;4.68;2.03;;;;;;;21.11;28.72;101640.34;5032512;28;20053;-83
2023/06/05 07:05:17;;;;;;;4.07;2.05;;;;;;;21.18;28.64;101633.03;5048982;28;20515;-82
2023/06/05 07:07:45;;;;;;;4.55;2.10;;;;;;;21.25;28.53;101636.78;5028662;28;20037;-82
2023/06/05 07:10:13;;;;;;;3.70;1.90;;;;;;;21.32;28.01;101640.59;5027955;28;20060;-82
2023/06/05 07:12:43;;;;;;;3.65;1.95;;;;;;;21.42;27.59;101643.13;5030517;28;20036;-83
2023/06/05 07:15:11;;;;;;;4.72;2.15;;;;;;;21.45;27.65;101646.38;5028826;28;20045;-83
2023/06/05 07:17:52;;;;;;;4.53;2.15;;;;;;;21.53;27.10;101637.09;5032044;28;20048;-83
2023/06/05 07:20:25;;;;;;;4.03;1.92;;;;;;;21.55;27.24;101645.25;5035262;28;20057;-84
2023/06/05 07:22:53;;;;;;;3.85;1.88;;;;;;;21.58;27.24;101642.97;5034735;28;20041;-85
2023/06/05 07:25:24;;;;;;;5.57;1.90;;;;;;;21.65;27.58;101635.59;5025778;28;20139;-82
2023/06/05 07:27:59;;;;;;;4.05;1.80;;;;;;;21.73;26.77;101634.66;5035316;28;20511;-84
2023/06/05 07:30:28;;;;;;;4.60;2.15;;;;;;;21.76;27.10;101631.50;5024886;28;20060;-84
2023/06/05 07:33:03;;;;;;;5.60;1.92;;;;;;;21.82;27.02;101637.16;5055475;28;20118;-83
2023/06/05 07:35:38;;;;;;;2.78;1.60;;;;;;;21.87;26.96;101625.44;5032512;28;20049;-83
2023/06/05 07:38:06;;;;;;;3.00;1.70;;;;;;;21.96;27.02;101626.25;5033964;28;20120;-82
2023/06/05 07:40:35;;;;;;;3.00;1.58;;;;;;;22.05;26.78;101634.34;5036700;28;20425;-80
2023/06/05 07:43:04;;;;;;;3.70;1.75;;;;;;;22.14;26.90;101626.75;5031656;28;20041;-81
2023/06/05 07:45:32;;;;;;;3.83;1.70;;;;;;;22.20;26.60;101624.06;5034990;28;20049;-82
2023/06/05 07:48:00;;;;;;;3.58;1.65;;;;;;;22.32;26.63;101626.38;5038192;28;20076;-82
2023/06/05 07:50:30;;;;;;;3.28;1.80;;;;;;;22.41;26.37;101623.28;5034253;28;20117;-82
2023/06/05 07:52:58;;;;;;;4.28;1.90;;;;;;;22.49;26.09;101627.88;5040026;28;20041;-81
2023/06/05 07:55:25;;;;;;;3.88;1.65;;;;;;;22.61;26.02;101629.13;5042423;28;20072;-79
2023/06/05 07:57:56;;;;;;;3.70;1.55;;;;;;;22.71;25.71;101623.25;5059893;28;20099;-80
2023/06/05 08:00:28;;;;;;;3.30;1.80;;;;;;;22.79;24.75;101625.94;5038619;28;20120;-81
2023/06/05 08:02:57;;;;;;;4.28;1.70;;;;;;;22.84;25.57;101631.78;5041323;28;20072;-81
2023/06/05 08:05:27;;;;;;;3.88;1.98;;;;;;;22.92;25.41;101624.16;5041532;28;20053;-82
2023/06/05 08:07:55;;;;;;;4.10;2.17;;;;;;;23.00;24.93;101628.78;5050534;28;20045;-79
2023/06/05 08:10:23;;;;;;;2.88;1.60;;;;;;;23.09;25.48;101619.19;5051232;28;20184;-79
2023/06/05 08:12:51;;;;;;;3.17;1.58;;;;;;;23.19;25.38;101624.47;5054304;28;20071;-80
2023/06/05 08:15:19;;;;;;;3.33;1.70;;;;;;;23.28;25.23;101623.28;5045675;28;20053;-81
2023/06/05 08:17:49;;;;;;;3.85;1.65;;;;;;;23.41;25.34;101623.41;5041258;28;20045;-80
2023/06/05 08:20:17;;;;;;;4.53;1.60;;;;;;;23.45;24.65;101613.56;5038009;28;20531;-80
2023/06/05 08:22:45;;;;;;;3.55;2.00;;;;;;;23.58;25.39;101616.44;5058331;28;20045;-81
2023/06/05 08:25:13;;;;;;;2.92;1.52;;;;;;;23.69;25.68;101615.03;5038123;28;20033;-80
2023/06/05 08:27:41;;;;;;;3.45;1.63;;;;;;;23.78;25.34;101611.06;5037366;28;20046;-80
2023/06/05 08:30:09;;;;;;;3.40;1.83;;;;;;;23.91;25.30;101607.53;5037624;28;20045;-81
2023/06/05 08:32:37;;;;;;;3.35;1.50;;;;;;;24.01;25.43;101602.41;5039305;28;20073;-81
2023/06/05 08:35:08;;;;;;;3.22;1.55;;;;;;;24.14;24.86;101597.78;5039379;28;20401;-81
2023/06/05 08:37:36;;;;;;;4.13;1.90;;;;;;;24.23;25.27;101601.28;5034955;28;20041;-82
2023/06/05 08:40:06;;;;;;;3.75;1.73;;;;;;;24.36;25.02;101594.91;5027863;28;20044;-80
2023/06/05 08:42:34;;;;;;;4.55;1.70;;;;;;;24.47;24.99;101597.13;5035448;28;20081;-80
2023/06/05 08:45:02;;;;;;;2.88;1.88;;;;;;;24.59;24.70;101602.97;5053111;28;20124;-80
2023/06/05 08:47:31;;;;;;;3.15;1.90;;;;;;;24.69;24.87;101587.50;5036310;28;20071;-80
2023/06/05 08:50:04;;;;;;;3.65;1.80;;;;;;;24.82;24.10;101593.13;5037163;28;20052;-79
2023/06/05 08:52:35;;;;;;;3.20;1.80;;;;;;;24.94;24.39;101595.34;5039016;28;20058;-80
2023/06/05 08:55:05;;;;;;;2.78;1.70;;;;;;;25.02;24.34;101601.63;5054787;28;20064;-79
2023/06/05 08:57:36;;;;;;;3.97;1.70;;;;;;;25.12;24.21;101590.88;5042430;28;20155;-80
2023/06/05 09:00:10;;;;;;;3.58;2.20;;;;;;;25.21;24.04;101584.00;5037079;28;20522;-80
2023/06/05 09:02:43;;;;;;;3.08;1.77;;;;;;;25.31;23.54;101591.97;5061360;28;20041;-81
2023/06/05 09:05:12;;;;;;;4.38;1.50;;;;;;;25.40;23.87;101590.66;5059294;28;20049;-81
2023/06/05 09:07:41;;;;;;;3.38;1.77;;;;;;;25.50;23.12;101587.44;5042544;28;20049;-80
2023/06/05 09:10:23;;;;;;;3.80;1.90;;;;;;;25.60;23.34;101579.50;5058688;28;20033;-81
2023/06/05 09:12:55;;;;;;;2.95;1.58;;;;;;;25.65;23.16;101576.91;5043928;28;20059;-81
2023/06/05 09:15:25;;;;;;;4.32;1.83;;;;;;;25.73;22.90;101581.41;5059569;28;20168;-81
2023/06/05 09:18:09;;;;;;;3.45;1.70;;;;;;;25.80;22.57;101585.94;5040487;28;20067;-81
2023/06/05 09:20:38;;;;;;;4.10;1.88;;;;;;;25.84;22.34;101580.78;5039504;28;20053;-81
2023/06/05 09:26:03;;;;;;;4.60;1.90;;;;;;;25.93;21.91;101585.06;5063508;27;20406;-71
2023/06/05 09:28:31;;;;;;;3.63;1.98;;;;;;;25.94;21.78;101572.78;5058206;28;20049;-71
2023/06/05 09:31:00;;;;;;;3.40;2.00;;;;;;;25.96;21.33;101570.63;5041050;28;20061;-71
2023/06/05 09:33:30;;;;;;;4.20;1.92;;;;;;;25.96;21.27;101565.88;5043241;28;20045;-71
2023/06/05 09:36:06;;;;;;;3.22;1.88;;;;;;;25.99;20.02;101570.16;5041404;28;20139;-71
2023/06/05 09:38:36;;;;;;;3.72;1.70;;;;;;;25.95;20.81;101574.50;5042162;28;20045;-71
2023/06/05 09:41:07;;;;;;;4.28;1.95;;;;;;;25.96;20.75;101576.22;5042257;28;20096;-71
2023/06/05 09:43:36;;;;;;;4.18;1.98;;;;;;;25.91;20.66;101562.84;5042816;28;20052;-71
2023/06/05 09:46:09;;;;;;;3.70;1.75;;;;;;;25.93;20.40;101563.50;5039335;28;20055;-71
2023/06/05 09:48:38;;;;;;;4.00;1.85;;;;;;;25.90;20.83;101563.06;5045545;28;20504;-71
2023/06/05 09:51:10;;;;;;;3.20;1.90;;;;;;;25.91;20.87;101562.84;5035184;28;20049;-71
2023/06/05 09:53:43;;;;;;;3.38;2.03;;;;;;;25.91;20.41;101564.78;5042098;28;20060;-71
2023/06/05 09:56:15;;;;;;;5.13;2.80;;;;;;;25.89;20.42;101573.41;5025721;28;20060;-69
2023/06/05 09:58:47;;;;;;;3.70;2.17;;;;;;;25.93;20.22;101565.44;5054270;28;20077;-70
2023/06/05 10:01:17;;;;;;;4.95;2.40;;;;;;;25.92;20.69;101563.72;5021792;28;20046;-69
2023/06/05 10:03:51;;;;;;;5.22;2.65;;;;;;;25.94;19.83;101555.94;5021425;28;20548;-70
2023/06/05 10:06:23;;;;;;;6.20;2.47;;;;;;;25.93;19.95;101559.81;5021552;28;20052;-70
2023/06/05 10:08:53;;;;;;;;;;;;;;;25.64;20.64;101558.34;5021663;28;20460;-70
2023/06/05 10:11:23;;;;;;;4.00;2.10;;;;;;;25.94;20.01;101547.53;5019775;28;19921;-70
2023/06/05 10:13:51;;;;;;;3.10;2.03;;;;;;;25.97;20.15;101545.13;5020882;28;20088;-71
2023/06/05 10:16:20;;;;;;;3.90;2.00;;;;;;;26.02;20.43;101558.50;5026480;28;20052;-70
2023/06/05 10:18:55;;;;;;;5.43;1.90;;;;;;;26.05;20.31;101548.81;5015462;28;20409;-71
2023/06/05 10:21:24;;;;;;;4.28;2.20;;;;;;;26.07;19.87;101541.91;5015246;28;20045;-64
2023/06/05 10:23:58;;;;;;;4.85;2.10;;;;;;;26.13;20.10;101543.00;5016538;28;20050;-63
2023/06/05 10:26:40;;;;;;;4.32;2.30;;;;;;;26.18;20.17;101543.19;5017006;28;20046;-63
2023/06/05 10:29:28;;;;;;;3.15;2.00;;;;;;;26.19;19.48;101542.97;5014504;28;20037;-65
2023/06/05 10:32:01;;;;;;;3.95;1.90;;;;;;;26.22;19.85;101545.31;5015828;28;20096;-66
2023/06/05 10:34:42;;;;;;;3.60;1.98;;;;;;;26.26;19.84;101542.94;5014926;28;20467;-64
2023/06/05 10:37:29;;;;;;;4.63;2.17;;;;;;;26.28;18.95;101540.78;5005381;28;20045;-62
2023/06/05 10:39:58;;;;;;;4.40;2.35;;;;;;;26.26;19.09;101531.69;4997929;28;20049;-61
2023/06/05 10:42:29;;;;;;;3.95;2.15;;;;;;;26.29;18.32;101540.56;5019643;28;20064;-71
2023/06/05 10:44:57;;;;;;;3.75;1.95;;;;;;;26.29;18.85;101532.13;5001369;28;20112;-71
2023/06/05 10:47:50;;;;;;;5.03;2.10;;;;;;;26.30;18.76;101541.38;5006368;28;20531;-72
2023/06/05 10:50:21;;;;;;;3.60;2.20;;;;;;;26.30;18.75;101538.56;5004863;28;20052;-71
2023/06/05 10:52:50;;;;;;;3.83;2.00;;;;;;;26.32;18.64;101530.81;4999985;28;20050;-71
2023/06/05 10:55:18;;;;;;;3.25;2.00;;;;;;;26.32;18.42;101534.47;5004053;28;20058;-72
2023/06/05 10:58:22;;;;;;;5.38;2.30;;;;;;;26.35;17.73;101527.56;5006842;28;20088;-72
2023/06/05 11:01:20;;;;;;;5.22;2.20;;;;;;;26.32;17.44;101533.63;5000211;28;20541;-71
2023/06/05 11:03:57;;;;;;;3.97;2.03;;;;;;;26.34;17.08;101548.28;5005781;28;20433;-71
2023/06/05 11:06:25;;;;;;;3.88;2.28;;;;;;;26.31;17.76;101541.16;5017713;28;20076;-71
2023/06/05 11:09:11;;;;;;;4.10;2.10;;;;;;;26.32;17.28;101530.81;5023585;28;20049;-71
2023/06/05 11:12:01;;;;;;;3.53;1.90;;;;;;;26.27;17.74;101531.50;5024052;28;20049;-72
2023/06/05 11:14:45;;;;;;;3.60;1.95;;;;;;;26.29;17.34;101528.47;5025268;28;20037;-71
2023/06/05 11:17:33;;;;;;;3.90;2.10;;;;;;;26.27;17.77;101530.63;5006083;28;20042;-71
2023/06/05 11:20:05;;;;;;;3.78;2.00;;;;;;;26.29;18.32;101520.91;5005648;28;20103;-71
2023/06/05 11:22:33;;;;;;;4.03;2.17;;;;;;;26.28;18.12;101519.19;5005879;28;20046;-72
2023/06/05 11:25:26;;;;;;;3.80;2.13;;;;;;;26.32;17.39;101516.78;5003766;28;20030;-73
2023/06/05 11:27:57;;;;;;;4.05;2.10;;;;;;;26.32;17.37;101514.84;5005891;28;20128;-71
2023/06/05 11:30:29;;;;;;;4.82;2.20;;;;;;;26.33;17.59;101518.50;5005052;28;20054;-72
2023/06/05 11:33:15;;;;;;;5.15;2.25;;;;;;;26.34;17.48;101517.41;5006938;28;20135;-72
2023/06/05 11:35:46;;;;;;;4.33;2.30;;;;;;;26.31;17.69;101515.91;5011911;28;20041;-71
2023/06/05 11:38:16;;;;;;;4.22;2.28;;;;;;;26.34;17.43;101506.19;5027805;28;20330;-72
2023/06/05 11:40:47;;;;;;;4.30;2.10;;;;;;;26.34;17.60;101509.00;5022443;28;20091;-73
2023/06/05 11:43:16;;;;;;;4.80;2.00;;;;;;;26.36;17.30;101512.44;5025861;28;20064;-70
2023/06/05 11:45:51;;;;;;;3.53;2.35;;;;;;;26.41;17.23;101501.41;5025123;28;20081;-71
2023/06/05 11:48:21;;;;;;;6.90;3.75;;;;;;;26.41;17.83;101507.00;5024558;28;20523;-72
2023/06/05 11:50:54;;;;;;;6.22;3.17;;;;;;;26.45;17.57;101499.03;5025172;28;20091;-71